KLRO

Details ICAO KLRO
Name MT PLEASANT RGNL
Region United States
Timezone America/New_York (UTC-4.0)
Plans Departing 11
Arriving 16
Stats Elevation 12 ft / 4 m (AMSL)
Location 32.897972° -79.782859°
Runways 1
Magnetic Variation 8.081° W
Sunrise 2018-05-27 10:14:51 UTC / 2018-05-27 06:14:51 Local
Sunset 2018-05-28 00:20:40 UTC / 2018-05-27 20:20:40 Local
Advertisement - Login to hide

Runways

ID Width Length Bearing (true) Bearing (mag) Surface Threshold Offset Overrun Length
17 75 ft / 23 m 3,806 ft / 1,160 m 167.39° 175.47° Asphalt 0 ft / 0 m 0 ft / 0 m
35 75 ft / 23 m 3,806 ft / 1,160 m 347.39° 355.47° Asphalt 0 ft / 0 m 0 ft / 0 m

Map

Weather


0- 5 10 15 20 25 30 35+ Temperature / ° C

Clouds and Precipitation
Forecast for 2018-05-27 18:00 UTC. Updated 37 minutes ago

Ground ~20,000 ft ~40,000 ft Winds

METAR

KLRO 271735Z AUTO 12008G14KT 360V010 3SM HZ SCT019 28/23 A3000 RMK AO2

TAF

Not found

Frequencies

Unicom 122.70 MHz CTAF/UNICOM
Approach 135.80 MHz CHARLESTON APP/DEP
Warning: Do not use this data for real-world aviation or navigation. No guarantee of current accuracy is given.